Time;durP1;ratioP1;P1;durP2;ratioP2;P2;SDS_P1;SDS_P2;PMS_P1;PMS_P2;Temp;Humidity;BMP_temperature;BMP_pressure;BME280_temperature;BME280_humidity;BME280_pressure;Samples;Min_cycle;Max_cycle;Signal;HPM_P1;HPM_P2
2023/06/17 00:01:10;;;;;;;10.67;4.67;;;;;;;;;;6281050;28;20194;-61
2023/06/17 00:04:11;;;;;;;8.47;5.00;;;;;;;;;;6279387;28;20189;-61
2023/06/17 00:07:13;;;;;;;6.20;4.77;;;;;;;;;;6279468;28;20197;-61
2023/06/17 00:10:14;;;;;;;5.83;4.57;;;;;;;;;;6298488;28;20186;-61
2023/06/17 00:13:19;;;;;;;5.67;4.80;;;;;;;;;;6287982;28;20192;-61
2023/06/17 00:16:20;;;;;;;4.93;4.47;;;;;;;;;;6296135;28;20189;-61
2023/06/17 00:19:22;;;;;;;4.63;4.23;;;;;;;;;;6293807;28;20213;-61
2023/06/17 00:22:25;;;;;;;5.20;4.70;;;;;;;;;;6277201;28;20210;-61
2023/06/17 00:25:26;;;;;;;6.57;4.50;;;;;;;;;;6281377;28;20200;-61
2023/06/17 00:28:27;;;;;;;5.70;4.53;;;;;;;;;;6280414;28;20196;-61
2023/06/17 00:31:28;;;;;;;4.57;4.07;;;;;;;;;;6271456;28;20217;-61
2023/06/17 00:34:29;;;;;;;5.63;5.07;;;;;;;;;;6278385;28;20200;-61
2023/06/17 00:37:30;;;;;;;5.90;4.70;;;;;;;;;;6281026;28;20219;-61
2023/06/17 00:40:31;;;;;;;4.97;4.47;;;;;;;;;;6283574;28;20215;-61
2023/06/17 00:43:32;;;;;;;6.00;4.70;;;;;;;;;;6262761;28;20220;-61
2023/06/17 00:46:37;;;;;;;5.10;4.57;;;;;;;;;;6282599;28;20256;-61
2023/06/17 00:49:40;;;;;;;5.03;4.53;;;;;;;;;;6287440;28;20193;-61
2023/06/17 00:52:41;;;;;;;6.47;4.60;;;;;;;;;;6280652;28;20282;-61
2023/06/17 00:55:42;;;;;;;4.50;4.10;;;;;;;;;;6310126;28;20234;-61
2023/06/17 00:58:45;;;;;;;5.93;4.73;;;;;;;;;;6276376;28;20214;-61
2023/06/17 01:01:46;;;;;;;6.63;4.83;;;;;;;;;;6296961;28;20181;-61
2023/06/17 01:04:47;;;;;;;4.83;4.43;;;;;;;;;;6285179;28;20185;-61
2023/06/17 01:08:08;;;;;;;5.40;4.90;;;;;;;;;;6276271;28;20197;-61
2023/06/17 01:11:11;;;;;;;5.23;4.57;;;;;;;;;;6291311;28;20247;-61
2023/06/17 01:14:13;;;;;;;5.27;4.03;;;;;;;;;;6292783;28;20197;-61
2023/06/17 01:17:17;;;;;;;5.90;5.30;;;;;;;;;;6286666;28;20215;-61
2023/06/17 01:20:19;;;;;;;5.50;4.53;;;;;;;;;;6287014;28;20217;-61
2023/06/17 01:23:31;;;;;;;6.33;4.57;;;;;;;;;;6271846;28;20234;-61
2023/06/17 01:26:34;;;;;;;4.90;4.40;;;;;;;;;;6280965;28;20274;-61
2023/06/17 01:29:37;;;;;;;5.43;4.67;;;;;;;;;;6281322;28;20320;-62
2023/06/17 01:32:38;;;;;;;5.93;4.70;;;;;;;;;;6272386;28;20194;-61
2023/06/17 01:35:41;;;;;;;4.97;4.47;;;;;;;;;;6292274;28;20197;-61
2023/06/17 01:38:44;;;;;;;4.83;4.43;;;;;;;;;;6292515;28;20221;-61
2023/06/17 01:41:48;;;;;;;6.10;4.10;;;;;;;;;;6279067;28;20197;-61
2023/06/17 01:44:50;;;;;;;5.53;4.20;;;;;;;;;;6286929;28;20503;-61
2023/06/17 01:47:51;;;;;;;4.77;3.90;;;;;;;;;;6287512;28;20189;-61
2023/06/17 01:50:52;;;;;;;6.87;4.70;;;;;;;;;;6268446;28;20197;-61
2023/06/17 01:53:53;;;;;;;4.83;4.43;;;;;;;;;;6287494;28;20205;-61
2023/06/17 01:56:54;;;;;;;7.07;4.57;;;;;;;;;;6280282;28;20294;-61
2023/06/17 01:59:56;;;;;;;5.60;4.60;;;;;;;;;;6270539;28;20238;-61
2023/06/17 02:02:57;;;;;;;5.17;4.37;;;;;;;;;;6274933;28;20193;-61
2023/06/17 02:05:58;;;;;;;6.67;4.70;;;;;;;;;;6273804;28;20193;-61
2023/06/17 02:08:59;;;;;;;7.23;4.87;;;;;;;;;;6293722;28;20272;-61
2023/06/17 02:12:00;;;;;;;5.10;4.23;;;;;;;;;;6274405;28;20212;-61
2023/06/17 02:15:01;;;;;;;6.03;4.10;;;;;;;;;;6292977;28;20196;-61
2023/06/17 02:18:02;;;;;;;4.93;4.17;;;;;;;;;;6277622;28;20224;-61
2023/06/17 02:21:04;;;;;;;4.53;4.13;;;;;;;;;;6274539;28;20277;-61
2023/06/17 02:24:06;;;;;;;4.77;4.33;;;;;;;;;;6274839;28;20189;-61
2023/06/17 02:27:07;;;;;;;6.27;4.43;;;;;;;;;;6286938;28;20193;-61
2023/06/17 02:30:09;;;;;;;4.60;4.10;;;;;;;;;;6280328;28;20272;-61
2023/06/17 02:33:11;;;;;;;5.50;4.80;;;;;;;;;;6293197;28;20190;-61
2023/06/17 02:36:14;;;;;;;4.87;4.37;;;;;;;;;;6276793;28;20186;-61
2023/06/17 02:39:15;;;;;;;5.77;4.23;;;;;;;;;;6286272;28;20205;-61
2023/06/17 02:42:16;;;;;;;4.50;4.10;;;;;;;;;;6273552;28;20276;-61
2023/06/17 02:45:18;;;;;;;4.90;4.47;;;;;;;;;;6256396;28;20237;-61
2023/06/17 02:48:20;;;;;;;6.03;4.37;;;;;;;;;;6296123;28;20220;-61
2023/06/17 02:51:21;;;;;;;5.37;3.93;;;;;;;;;;6280989;28;20185;-61
2023/06/17 02:54:22;;;;;;;6.57;4.80;;;;;;;;;;6294998;28;20189;-61
2023/06/17 02:57:23;;;;;;;6.77;4.90;;;;;;;;;;6279089;28;20217;-61
2023/06/17 03:00:24;;;;;;;6.40;4.37;;;;;;;;;;6268926;28;20194;-61
2023/06/17 03:03:34;;;;;;;5.77;4.13;;;;;;;;;;6276301;28;20189;-61
2023/06/17 03:06:36;;;;;;;5.33;4.23;;;;;;;;;;6273257;28;20194;-61
2023/06/17 03:09:37;;;;;;;7.53;4.20;;;;;;;;;;6280635;28;20190;-61
2023/06/17 03:12:38;;;;;;;5.10;4.13;;;;;;;;;;6283233;28;20186;-61
2023/06/17 03:15:40;;;;;;;4.57;4.17;;;;;;;;;;6292885;28;20277;-61
2023/06/17 03:18:41;;;;;;;5.00;4.27;;;;;;;;;;6278557;28;20224;-61
2023/06/17 03:21:43;;;;;;;4.77;4.30;;;;;;;;;;6279657;28;20192;-61
2023/06/17 03:24:44;;;;;;;5.70;4.40;;;;;;;;;;6287583;28;20239;-61
2023/06/17 03:27:45;;;;;;;5.33;4.60;;;;;;;;;;6278647;28;20201;-61
2023/06/17 03:30:46;;;;;;;5.20;4.70;;;;;;;;;;6282822;28;20197;-61
2023/06/17 03:33:48;;;;;;;6.27;4.30;;;;;;;;;;6270976;28;20203;-61
2023/06/17 03:36:50;;;;;;;5.70;4.50;;;;;;;;;;6284589;28;20290;-61
2023/06/17 03:39:51;;;;;;;5.10;4.60;;;;;;;;;;6289099;28;20217;-61
2023/06/17 03:42:54;;;;;;;7.10;4.70;;;;;;;;;;6291921;28;20189;-61
2023/06/17 03:45:55;;;;;;;5.53;4.10;;;;;;;;;;6278938;28;20242;-61
2023/06/17 03:48:56;;;;;;;5.00;4.27;;;;;;;;;;6270012;28;20197;-62
2023/06/17 03:51:58;;;;;;;6.03;4.33;;;;;;;;;;6283693;28;20197;-62
2023/06/17 03:54:59;;;;;;;4.40;3.87;;;;;;;;;;6279958;28;20207;-62
2023/06/17 03:58:00;;;;;;;5.23;4.30;;;;;;;;;;6273035;28;20228;-61
2023/06/17 04:01:02;;;;;;;5.07;4.57;;;;;;;;;;6286828;28;20194;-62
2023/06/17 04:04:03;;;;;;;6.37;4.93;;;;;;;;;;6299036;28;20185;-62
2023/06/17 04:07:04;;;;;;;4.77;4.30;;;;;;;;;;6277202;28;20201;-62
2023/06/17 04:10:09;;;;;;;6.70;4.47;;;;;;;;;;6273471;28;20205;-62
2023/06/17 04:13:10;;;;;;;4.47;4.07;;;;;;;;;;6288046;28;20280;-62
2023/06/17 04:16:15;;;;;;;4.40;4.00;;;;;;;;;;6284082;28;20193;-62
2023/06/17 04:19:17;;;;;;;4.83;3.80;;;;;;;;;;6285574;28;20228;-62
2023/06/17 04:22:18;;;;;;;4.50;3.60;;;;;;;;;;6274348;28;20194;-62
2023/06/17 04:25:20;;;;;;;7.10;4.63;;;;;;;;;;6274845;28;20207;-62
2023/06/17 04:28:22;;;;;;;5.33;4.13;;;;;;;;;;6281467;28;20189;-63
2023/06/17 04:31:25;;;;;;;4.97;4.57;;;;;;;;;;6277605;28;20201;-62
2023/06/17 04:34:26;;;;;;;4.60;4.20;;;;;;;;;;6278626;28;20201;-62
2023/06/17 04:37:27;;;;;;;6.07;4.67;;;;;;;;;;6283642;28;20215;-62
2023/06/17 04:40:28;;;;;;;5.23;3.83;;;;;;;;;;6278371;28;20217;-62
2023/06/17 04:43:29;;;;;;;7.23;4.20;;;;;;;;;;6276545;28;20238;-62
2023/06/17 04:46:30;;;;;;;8.57;4.73;;;;;;;;;;6279770;28;20264;-62
2023/06/17 04:49:38;;;;;;;6.17;4.47;;;;;;;;;;6287128;28;20261;-62
2023/06/17 04:52:50;;;;;;;5.83;4.40;;;;;;;;;;6281390;28;20194;-62
2023/06/17 04:55:51;;;;;;;4.63;4.13;;;;;;;;;;6278288;28;20197;-61
2023/06/17 04:58:53;;;;;;;8.03;4.60;;;;;;;;;;6275889;28;20308;-62
2023/06/17 05:01:54;;;;;;;5.17;4.43;;;;;;;;;;6290062;28;20192;-62
2023/06/17 05:04:55;;;;;;;4.97;4.37;;;;;;;;;;6273839;28;20189;-61
2023/06/17 05:07:56;;;;;;;4.73;4.27;;;;;;;;;;6283008;28;20276;-63
2023/06/17 05:10:57;;;;;;;8.00;4.70;;;;;;;;;;6275962;28;20206;-63
2023/06/17 05:13:58;;;;;;;5.67;3.83;;;;;;;;;;6286785;28;20201;-62
2023/06/17 05:16:59;;;;;;;4.60;4.20;;;;;;;;;;6271063;28;20189;-62
2023/06/17 05:20:00;;;;;;;5.97;4.97;;;;;;;;;;6279755;28;20311;-62
2023/06/17 05:23:01;;;;;;;5.03;4.63;;;;;;;;;;6281107;28;20212;-63
2023/06/17 05:26:02;;;;;;;5.40;4.90;;;;;;;;;;6274077;28;20192;-63
2023/06/17 05:29:03;;;;;;;5.50;5.00;;;;;;;;;;6283143;28;20193;-62
2023/06/17 05:32:04;;;;;;;6.60;5.03;;;;;;;;;;6277696;28;20181;-62
2023/06/17 05:35:06;;;;;;;5.03;4.53;;;;;;;;;;6280825;28;20198;-62
2023/06/17 05:38:07;;;;;;;6.27;4.60;;;;;;;;;;6270536;28;20217;-62
2023/06/17 05:41:08;;;;;;;4.63;4.23;;;;;;;;;;6285243;28;20189;-63
2023/06/17 05:44:09;;;;;;;4.80;4.30;;;;;;;;;;6286956;28;20272;-63
2023/06/17 05:47:10;;;;;;;5.73;4.63;;;;;;;;;;6270299;28;20194;-62
2023/06/17 05:50:11;;;;;;;6.80;4.87;;;;;;;;;;6288041;28;20189;-62
2023/06/17 05:53:12;;;;;;;4.90;4.50;;;;;;;;;;6281564;28;20219;-61
2023/06/17 05:56:13;;;;;;;6.63;4.67;;;;;;;;;;6282904;28;20196;-61
2023/06/17 05:59:14;;;;;;;7.57;5.13;;;;;;;;;;6276495;28;20297;-62
2023/06/17 06:02:15;;;;;;;6.00;4.10;;;;;;;;;;6272781;28;20238;-63
2023/06/17 06:05:16;;;;;;;4.97;4.47;;;;;;;;;;6283237;28;20268;-63
2023/06/17 06:08:17;;;;;;;7.20;4.50;;;;;;;;;;6297716;28;20196;-63
2023/06/17 06:11:18;;;;;;;4.80;4.40;;;;;;;;;;6274396;28;20197;-63
2023/06/17 06:14:20;;;;;;;4.80;4.20;;;;;;;;;;6288701;28;20252;-63
2023/06/17 06:17:21;;;;;;;5.40;4.43;;;;;;;;;;6264278;28;20306;-63
2023/06/17 06:20:22;;;;;;;4.43;3.80;;;;;;;;;;6275057;28;20205;-63
2023/06/17 06:23:23;;;;;;;4.83;4.43;;;;;;;;;;6286827;28;21145;-63
2023/06/17 06:26:25;;;;;;;4.53;4.10;;;;;;;;;;6266903;28;20194;-63
2023/06/17 06:29:26;;;;;;;4.70;4.20;;;;;;;;;;6276322;28;20201;-63
2023/06/17 06:32:27;;;;;;;4.70;4.20;;;;;;;;;;6273098;28;20192;-63
2023/06/17 06:35:28;;;;;;;7.03;4.17;;;;;;;;;;6273478;28;20201;-63
2023/06/17 06:38:29;;;;;;;4.93;3.77;;;;;;;;;;6292421;28;20212;-63
2023/06/17 06:41:30;;;;;;;5.37;3.90;;;;;;;;;;6275647;28;20193;-62
2023/06/17 06:44:31;;;;;;;5.10;4.27;;;;;;;;;;6268399;28;20245;-62
2023/06/17 06:47:32;;;;;;;5.53;4.47;;;;;;;;;;6273956;28;20192;-62
2023/06/17 06:50:34;;;;;;;4.20;3.80;;;;;;;;;;6292584;28;20190;-62
2023/06/17 06:53:35;;;;;;;4.50;4.07;;;;;;;;;;6295636;28;20192;-62
2023/06/17 06:56:36;;;;;;;5.07;4.17;;;;;;;;;;6287652;28;20193;-63
2023/06/17 06:59:37;;;;;;;4.90;4.10;;;;;;;;;;6279450;28;20213;-62
2023/06/17 07:02:38;;;;;;;4.83;4.33;;;;;;;;;;6273864;28;20194;-63
2023/06/17 07:05:39;;;;;;;5.23;4.80;;;;;;;;;;6281102;28;20197;-64
2023/06/17 07:08:40;;;;;;;4.73;4.23;;;;;;;;;;6291230;28;20196;-64
2023/06/17 07:11:41;;;;;;;7.60;4.50;;;;;;;;;;6290287;28;20192;-64
2023/06/17 07:14:42;;;;;;;6.83;4.90;;;;;;;;;;6270810;28;20233;-62
2023/06/17 07:17:43;;;;;;;5.60;5.00;;;;;;;;;;6277928;28;20212;-62
2023/06/17 07:20:45;;;;;;;5.83;4.80;;;;;;;;;;6280646;28;20200;-62
2023/06/17 07:23:46;;;;;;;5.40;4.47;;;;;;;;;;6295934;28;20189;-61
2023/06/17 07:26:47;;;;;;;5.17;4.57;;;;;;;;;;6280242;28;20280;-61
2023/06/17 07:29:48;;;;;;;8.13;4.40;;;;;;;;;;6278888;28;20224;-63
2023/06/17 07:32:49;;;;;;;5.27;4.77;;;;;;;;;;6272698;28;20206;-63
2023/06/17 07:35:50;;;;;;;4.63;4.17;;;;;;;;;;6279313;28;20204;-63
2023/06/17 07:38:51;;;;;;;7.17;4.70;;;;;;;;;;6282444;28;20225;-63
2023/06/17 07:41:52;;;;;;;4.97;4.50;;;;;;;;;;6293588;28;20279;-63
2023/06/17 07:44:53;;;;;;;5.10;4.70;;;;;;;;;;6287546;28;20243;-63
2023/06/17 07:47:54;;;;;;;5.20;4.70;;;;;;;;;;6277025;28;20186;-64
2023/06/17 07:50:55;;;;;;;6.23;4.90;;;;;;;;;;6289664;28;20215;-63
2023/06/17 07:53:56;;;;;;;5.67;5.17;;;;;;;;;;6300961;28;20209;-63
2023/06/17 07:56:57;;;;;;;6.43;4.63;;;;;;;;;;6288868;28;20222;-63
2023/06/17 07:59:58;;;;;;;5.00;4.53;;;;;;;;;;6276040;28;20209;-63
2023/06/17 08:03:00;;;;;;;5.70;4.93;;;;;;;;;;6279686;28;20193;-63
2023/06/17 08:06:01;;;;;;;5.73;4.60;;;;;;;;;;6268621;28;20201;-63
2023/06/17 08:09:03;;;;;;;5.87;4.33;;;;;;;;;;6278324;28;20205;-63
2023/06/17 08:12:04;;;;;;;5.00;4.53;;;;;;;;;;6278782;28;20208;-63
2023/06/17 08:15:05;;;;;;;7.10;5.20;;;;;;;;;;6287388;28;20198;-63
2023/06/17 08:18:06;;;;;;;6.80;4.30;;;;;;;;;;6275711;28;20209;-63
2023/06/17 08:21:07;;;;;;;6.60;4.47;;;;;;;;;;6287569;28;20241;-63
2023/06/17 08:24:18;;;;;;;4.47;4.07;;;;;;;;;;6291983;28;20185;-63
2023/06/17 08:27:19;;;;;;;4.57;4.17;;;;;;;;;;6283282;28;20190;-63
2023/06/17 08:30:21;;;;;;;7.07;4.07;;;;;;;;;;6287156;28;20184;-63
2023/06/17 08:33:22;;;;;;;5.57;4.73;;;;;;;;;;6296865;28;20192;-64
2023/06/17 08:36:23;;;;;;;4.90;4.40;;;;;;;;;;6281859;28;20209;-64
2023/06/17 08:39:24;;;;;;;3.53;3.23;;;;;;;;;;6278477;28;20299;-63
2023/06/17 08:42:27;;;;;;;3.60;3.00;;;;;;;;;;6282871;28;20192;-63
2023/06/17 08:45:29;;;;;;;4.03;3.13;;;;;;;;;;6289935;28;20234;-63
2023/06/17 08:48:30;;;;;;;3.97;3.23;;;;;;;;;;6284537;28;20189;-64
2023/06/17 08:51:31;;;;;;;6.73;3.20;;;;;;;;;;6281822;28;20236;-64
2023/06/17 08:54:40;;;;;;;4.10;2.87;;;;;;;;;;6278746;28;20958;-64
2023/06/17 08:57:41;;;;;;;3.27;2.70;;;;;;;;;;6294291;28;20259;-64
2023/06/17 09:00:42;;;;;;;3.00;2.80;;;;;;;;;;6285956;28;20201;-63
2023/06/17 09:03:44;;;;;;;2.50;2.30;;;;;;;;;;6283241;28;20196;-63
2023/06/17 09:06:45;;;;;;;2.73;2.53;;;;;;;;;;6279085;28;20197;-63
2023/06/17 09:09:54;;;;;;;3.23;2.80;;;;;;;;;;6280580;28;20197;-64
2023/06/17 09:12:58;;;;;;;4.73;3.00;;;;;;;;;;6289692;28;20190;-64
2023/06/17 09:16:00;;;;;;;3.30;3.00;;;;;;;;;;6292549;28;20234;-65
2023/06/17 09:19:02;;;;;;;2.77;2.57;;;;;;;;;;6288602;28;20236;-65
2023/06/17 09:22:06;;;;;;;2.83;2.63;;;;;;;;;;6293991;28;20196;-65
2023/06/17 09:25:12;;;;;;;3.03;2.73;;;;;;;;;;6277817;28;20221;-64
2023/06/17 09:28:16;;;;;;;3.20;3.00;;;;;;;;;;6293582;28;20215;-65
2023/06/17 09:31:18;;;;;;;3.97;2.80;;;;;;;;;;6296793;28;20238;-63
2023/06/17 09:34:24;;;;;;;5.00;3.13;;;;;;;;;;6275962;28;20205;-63
2023/06/17 09:37:26;;;;;;;3.47;3.17;;;;;;;;;;6296647;28;20263;-63
2023/06/17 09:40:31;;;;;;;3.50;3.20;;;;;;;;;;6276193;28;20200;-63
2023/06/17 09:43:32;;;;;;;4.27;3.17;;;;;;;;;;6274242;28;20217;-63
2023/06/17 09:46:40;;;;;;;3.93;3.57;;;;;;;;;;6274132;28;20233;-63
2023/06/17 09:49:43;;;;;;;3.60;3.13;;;;;;;;;;6294465;28;20223;-63
2023/06/17 09:52:44;;;;;;;3.50;3.20;;;;;;;;;;6268389;28;20263;-63
2023/06/17 09:55:46;;;;;;;3.80;3.40;;;;;;;;;;6257145;28;20198;-65
2023/06/17 09:58:50;;;;;;;3.73;3.43;;;;;;;;;;6286235;28;20243;-64
2023/06/17 10:01:54;;;;;;;4.13;3.37;;;;;;;;;;6286196;28;20271;-65
2023/06/17 10:04:55;;;;;;;4.47;3.80;;;;;;;;;;6277719;28;20189;-64
2023/06/17 10:07:57;;;;;;;4.00;3.57;;;;;;;;;;6268484;28;20284;-64
2023/06/17 10:11:00;;;;;;;4.10;3.70;;;;;;;;;;6295731;28;20247;-64
2023/06/17 10:14:07;;;;;;;3.90;3.60;;;;;;;;;;6274338;28;20189;-64
2023/06/17 10:17:09;;;;;;;4.63;4.13;;;;;;;;;;6291310;28;20220;-64
2023/06/17 10:20:11;;;;;;;4.17;3.63;;;;;;;;;;6264533;28;20242;-64
2023/06/17 10:23:13;;;;;;;4.23;3.50;;;;;;;;;;6281410;28;20197;-64
2023/06/17 10:26:15;;;;;;;4.27;3.77;;;;;;;;;;6279909;28;20223;-64
2023/06/17 10:29:16;;;;;;;4.27;3.87;;;;;;;;;;6288968;28;20185;-67
2023/06/17 10:32:23;;;;;;;3.90;3.50;;;;;;;;;;6274145;28;20210;-66
2023/06/17 10:35:24;;;;;;;5.93;4.43;;;;;;;;;;6292844;28;20268;-65
2023/06/17 10:38:30;;;;;;;4.77;4.03;;;;;;;;;;6271913;28;20316;-66
2023/06/17 10:41:46;;;;;;;4.53;4.13;;;;;;;;;;6280512;28;20244;-65
2023/06/17 10:44:50;;;;;;;4.33;3.90;;;;;;;;;;6288490;28;20583;-66
2023/06/17 10:47:51;;;;;;;4.63;3.90;;;;;;;;;;6300288;28;20231;-66
2023/06/17 10:50:53;;;;;;;3.97;3.67;;;;;;;;;;6289904;28;20197;-65
2023/06/17 10:53:54;;;;;;;4.77;4.33;;;;;;;;;;6275785;28;20193;-66
2023/06/17 10:56:56;;;;;;;5.30;4.17;;;;;;;;;;6278075;28;20193;-66
2023/06/17 10:59:59;;;;;;;4.13;3.67;;;;;;;;;;6273961;28;20241;-65
2023/06/17 11:03:00;;;;;;;4.50;4.10;;;;;;;;;;6288254;28;20268;-64
2023/06/17 11:06:02;;;;;;;4.87;4.23;;;;;;;;;;6270959;28;20197;-64
2023/06/17 11:09:04;;;;;;;7.13;3.60;;;;;;;;;;6282111;28;20193;-65
2023/06/17 11:12:06;;;;;;;4.07;3.77;;;;;;;;;;6275356;28;20193;-64
2023/06/17 11:15:07;;;;;;;4.30;3.90;;;;;;;;;;6293981;28;20194;-64
2023/06/17 11:18:08;;;;;;;4.17;3.77;;;;;;;;;;6285050;28;20209;-65
2023/06/17 11:21:10;;;;;;;5.27;3.53;;;;;;;;;;6274793;28;20236;-65
2023/06/17 11:24:11;;;;;;;3.70;3.40;;;;;;;;;;6286179;28;20193;-65
2023/06/17 11:27:13;;;;;;;4.37;3.97;;;;;;;;;;6293676;28;20185;-65
2023/06/17 11:30:15;;;;;;;4.03;3.73;;;;;;;;;;6279200;28;20196;-67
2023/06/17 11:33:19;;;;;;;4.33;3.93;;;;;;;;;;6291488;28;20193;-67
2023/06/17 11:36:21;;;;;;;4.23;3.90;;;;;;;;;;6289289;28;20204;-66
2023/06/17 11:39:22;;;;;;;4.50;4.10;;;;;;;;;;6300620;28;20290;-68
2023/06/17 11:42:23;;;;;;;4.57;4.17;;;;;;;;;;6291344;28;20192;-66
2023/06/17 11:45:26;;;;;;;4.80;3.80;;;;;;;;;;6286943;28;20266;-66
2023/06/17 11:48:28;;;;;;;5.30;4.27;;;;;;;;;;6296788;28;20284;-66
2023/06/17 11:51:29;;;;;;;4.27;3.90;;;;;;;;;;6284262;28;20203;-66
2023/06/17 11:54:30;;;;;;;5.13;4.03;;;;;;;;;;6268462;28;20615;-66
2023/06/17 11:57:32;;;;;;;4.33;3.57;;;;;;;;;;6300117;28;20201;-67
2023/06/17 12:00:37;;;;;;;4.77;3.70;;;;;;;;;;6287592;28;20185;-67
2023/06/17 12:03:38;;;;;;;4.33;3.83;;;;;;;;;;6285372;28;20216;-67
2023/06/17 12:06:41;;;;;;;3.90;3.60;;;;;;;;;;6290889;28;20213;-67
2023/06/17 12:09:53;;;;;;;5.27;3.90;;;;;;;;;;6295177;28;20292;-67
2023/06/17 12:12:56;;;;;;;4.67;4.27;;;;;;;;;;6282321;28;20182;-66
2023/06/17 12:15:59;;;;;;;4.73;3.97;;;;;;;;;;6284239;28;20222;-66
2023/06/17 12:19:00;;;;;;;5.30;3.90;;;;;;;;;;6275906;28;20702;-65
2023/06/17 12:22:01;;;;;;;4.20;3.37;;;;;;;;;;6288218;28;20189;-65
2023/06/17 12:25:02;;;;;;;3.50;3.20;;;;;;;;;;6284831;28;20200;-65
2023/06/17 12:28:04;;;;;;;3.77;3.43;;;;;;;;;;6279221;28;20334;-67
2023/06/17 12:31:05;;;;;;;4.33;3.93;;;;;;;;;;6284544;28;20223;-65
2023/06/17 12:34:06;;;;;;;3.77;3.47;;;;;;;;;;6275386;28;20280;-66
2023/06/17 12:37:08;;;;;;;5.93;3.87;;;;;;;;;;6284003;28;20193;-66
2023/06/17 12:40:11;;;;;;;5.10;3.50;;;;;;;;;;6280810;28;20221;-66
2023/06/17 12:43:12;;;;;;;4.33;3.73;;;;;;;;;;6283505;28;20212;-66
2023/06/17 12:46:14;;;;;;;4.10;3.73;;;;;;;;;;6298432;28;20271;-66
2023/06/17 12:49:15;;;;;;;4.80;3.60;;;;;;;;;;6283639;28;20189;-66
2023/06/17 12:52:16;;;;;;;3.83;3.50;;;;;;;;;;6286502;28;20189;-66
2023/06/17 12:55:17;;;;;;;3.63;3.33;;;;;;;;;;6279238;28;20273;-66
2023/06/17 12:58:18;;;;;;;3.93;3.60;;;;;;;;;;6275367;28;20216;-67
2023/06/17 13:01:20;;;;;;;4.30;3.43;;;;;;;;;;6287917;28;20190;-65
2023/06/17 13:04:21;;;;;;;4.53;3.37;;;;;;;;;;6271816;28;20190;-65
2023/06/17 13:07:22;;;;;;;7.90;3.40;;;;;;;;;;6260170;28;20198;-65
2023/06/17 13:10:23;;;;;;;3.70;3.07;;;;;;;;;;6269223;28;20202;-63
2023/06/17 13:13:26;;;;;;;3.60;3.03;;;;;;;;;;6284632;28;20196;-65
2023/06/17 13:16:29;;;;;;;3.73;2.90;;;;;;;;;;6291449;28;20208;-65
2023/06/17 13:19:30;;;;;;;4.13;2.67;;;;;;;;;;6278498;28;20220;-65
2023/06/17 13:22:33;;;;;;;3.07;2.53;;;;;;;;;;6282381;28;20250;-65
2023/06/17 13:25:34;;;;;;;2.60;2.40;;;;;;;;;;6287458;28;20229;-65
2023/06/17 13:28:38;;;;;;;4.17;3.30;;;;;;;;;;6280021;28;20239;-64
2023/06/17 13:31:39;;;;;;;3.33;3.03;;;;;;;;;;6275399;28;20194;-65
2023/06/17 13:34:40;;;;;;;4.23;3.20;;;;;;;;;;6274244;28;20242;-65
2023/06/17 13:37:41;;;;;;;3.40;3.10;;;;;;;;;;6282027;28;20188;-64
2023/06/17 13:40:42;;;;;;;4.23;3.43;;;;;;;;;;6277706;28;20194;-65
2023/06/17 13:43:44;;;;;;;3.00;2.80;;;;;;;;;;6298244;28;20199;-64
2023/06/17 13:46:47;;;;;;;4.90;3.20;;;;;;;;;;6291193;28;20236;-65
2023/06/17 13:49:48;;;;;;;4.90;3.20;;;;;;;;;;6278274;28;20198;-65
2023/06/17 13:52:49;;;;;;;3.50;3.20;;;;;;;;;;6272975;28;20194;-65
2023/06/17 13:55:52;;;;;;;3.40;3.10;;;;;;;;;;6278056;28;20203;-66
2023/06/17 13:58:53;;;;;;;4.00;3.53;;;;;;;;;;6279633;28;20221;-65
2023/06/17 14:01:54;;;;;;;3.93;3.53;;;;;;;;;;6275723;28;20185;-65
2023/06/17 14:04:55;;;;;;;3.73;3.37;;;;;;;;;;6275922;28;20190;-64
2023/06/17 14:07:56;;;;;;;3.93;3.23;;;;;;;;;;6271935;28;20197;-65
2023/06/17 14:10:58;;;;;;;4.07;3.50;;;;;;;;;;6276859;28;20220;-65
2023/06/17 14:13:59;;;;;;;3.63;3.33;;;;;;;;;;6275613;28;20217;-65
2023/06/17 14:17:00;;;;;;;3.90;3.53;;;;;;;;;;6274044;28;20189;-65
2023/06/17 14:20:01;;;;;;;4.30;3.73;;;;;;;;;;6273085;28;20217;-65
2023/06/17 14:23:03;;;;;;;5.10;3.40;;;;;;;;;;6270967;28;20197;-66
2023/06/17 14:26:04;;;;;;;3.07;2.80;;;;;;;;;;6281780;28;20239;-65
2023/06/17 14:29:06;;;;;;;3.60;3.30;;;;;;;;;;6277082;28;20292;-64
2023/06/17 14:32:08;;;;;;;3.63;3.13;;;;;;;;;;6280419;28;20224;-63
2023/06/17 14:35:10;;;;;;;3.90;3.50;;;;;;;;;;6287956;28;20287;-64
2023/06/17 14:38:11;;;;;;;3.70;3.20;;;;;;;;;;6288702;28;20237;-63
2023/06/17 14:41:12;;;;;;;6.23;3.33;;;;;;;;;;6276190;28;20252;-63
2023/06/17 14:44:13;;;;;;;4.10;3.70;;;;;;;;;;6273020;28;20196;-63
2023/06/17 14:47:14;;;;;;;4.20;3.50;;;;;;;;;;6274418;28;20212;-64
2023/06/17 14:50:15;;;;;;;4.10;3.70;;;;;;;;;;6276092;28;20190;-64
2023/06/17 14:53:43;;;;;;;4.47;3.77;;;;;;;;;;6277660;28;20205;-63
2023/06/17 14:56:45;;;;;;;4.47;3.60;;;;;;;;;;6279009;28;20335;-64
2023/06/17 14:59:46;;;;;;;3.93;3.10;;;;;;;;;;6288103;28;20209;-63
2023/06/17 15:02:47;;;;;;;5.63;3.53;;;;;;;;;;6269921;28;20213;-63
2023/06/17 15:05:48;;;;;;;4.33;3.93;;;;;;;;;;6286163;28;20185;-63
2023/06/17 15:08:50;;;;;;;4.47;3.50;;;;;;;;;;6261331;28;20200;-63
2023/06/17 15:12:01;;;;;;;4.63;4.10;;;;;;;;;;6280130;28;20200;-63
2023/06/17 15:15:04;;;;;;;4.73;4.00;;;;;;;;;;6293765;28;20197;-62
2023/06/17 15:18:05;;;;;;;4.17;3.87;;;;;;;;;;6285389;28;20220;-62
2023/06/17 15:21:06;;;;;;;5.53;4.20;;;;;;;;;;6288909;28;20217;-61
2023/06/17 15:24:08;;;;;;;3.93;3.60;;;;;;;;;;6291975;28;20243;-61
2023/06/17 15:27:09;;;;;;;4.23;3.73;;;;;;;;;;6292571;28;20178;-62
2023/06/17 15:30:10;;;;;;;4.40;3.93;;;;;;;;;;6293077;28;20193;-62
2023/06/17 15:33:11;;;;;;;4.20;3.50;;;;;;;;;;6296078;28;20200;-62
2023/06/17 15:36:12;;;;;;;5.30;3.80;;;;;;;;;;6282204;28;20193;-62
2023/06/17 15:39:21;;;;;;;4.03;3.73;;;;;;;;;;6292652;28;20240;-62
2023/06/17 15:42:22;;;;;;;4.30;3.90;;;;;;;;;;6288442;28;20243;-62
2023/06/17 15:45:23;;;;;;;4.57;4.17;;;;;;;;;;6298025;28;20434;-62
2023/06/17 15:48:24;;;;;;;4.83;3.87;;;;;;;;;;6273195;28;20198;-62
2023/06/17 15:51:26;;;;;;;4.07;3.73;;;;;;;;;;6293586;28;20195;-62
2023/06/17 15:54:28;;;;;;;4.57;3.50;;;;;;;;;;6277254;28;20198;-63
2023/06/17 15:57:29;;;;;;;5.97;3.90;;;;;;;;;;6292385;28;20210;-63
2023/06/17 16:00:30;;;;;;;3.93;3.57;;;;;;;;;;6279356;28;20251;-63
2023/06/17 16:03:31;;;;;;;4.43;4.03;;;;;;;;;;6278536;28;20251;-63
2023/06/17 16:06:32;;;;;;;4.13;3.40;;;;;;;;;;6282300;28;20193;-62
2023/06/17 16:09:35;;;;;;;3.60;3.30;;;;;;;;;;6269705;28;20240;-62
2023/06/17 16:12:37;;;;;;;3.60;3.30;;;;;;;;;;6292050;28;20193;-62
2023/06/17 16:15:38;;;;;;;4.07;3.77;;;;;;;;;;6281069;28;20189;-63
2023/06/17 16:18:39;;;;;;;6.20;3.57;;;;;;;;;;6279144;28;20267;-62
2023/06/17 16:21:40;;;;;;;3.93;3.53;;;;;;;;;;6282866;28;20239;-63
2023/06/17 16:24:43;;;;;;;4.77;3.57;;;;;;;;;;6287058;28;20189;-62
2023/06/17 16:27:44;;;;;;;3.80;3.50;;;;;;;;;;6264188;28;20197;-62
2023/06/17 16:30:45;;;;;;;3.80;3.50;;;;;;;;;;6277101;28;20198;-65
2023/06/17 16:33:46;;;;;;;3.67;3.37;;;;;;;;;;6274803;28;20221;-64
2023/06/17 16:36:47;;;;;;;4.20;3.80;;;;;;;;;;6277769;28;20242;-65
2023/06/17 16:39:48;;;;;;;4.00;3.60;;;;;;;;;;6290734;28;20216;-65
2023/06/17 16:42:49;;;;;;;3.73;3.43;;;;;;;;;;6284291;28;20194;-64
2023/06/17 16:45:50;;;;;;;4.50;3.43;;;;;;;;;;6270244;28;20232;-65
2023/06/17 16:48:51;;;;;;;4.93;3.70;;;;;;;;;;6274057;28;20197;-67
2023/06/17 16:51:52;;;;;;;4.43;4.03;;;;;;;;;;6292162;28;20276;-65
2023/06/17 16:54:53;;;;;;;4.63;4.10;;;;;;;;;;6276816;28;20188;-67
2023/06/17 16:57:54;;;;;;;4.50;3.57;;;;;;;;;;6271555;28;20233;-65
2023/06/17 17:00:55;;;;;;;4.53;3.80;;;;;;;;;;6294040;28;20193;-65
2023/06/17 17:04:00;;;;;;;4.73;3.17;;;;;;;;;;6269492;28;20197;-65
2023/06/17 17:07:02;;;;;;;3.90;3.50;;;;;;;;;;6275850;28;20193;-65
2023/06/17 17:10:03;;;;;;;3.83;3.47;;;;;;;;;;6288205;28;20201;-65
2023/06/17 17:13:04;;;;;;;4.00;3.63;;;;;;;;;;6281893;28;20203;-64
2023/06/17 17:16:05;;;;;;;3.70;3.40;;;;;;;;;;6289197;28;20216;-66
2023/06/17 17:19:06;;;;;;;4.10;3.50;;;;;;;;;;6272008;28;20212;-64
2023/06/17 17:22:07;;;;;;;3.90;3.17;;;;;;;;;;6290095;28;20190;-66
2023/06/17 17:25:08;;;;;;;3.77;3.47;;;;;;;;;;6284236;28;20196;-65
2023/06/17 17:28:09;;;;;;;3.40;3.10;;;;;;;;;;6284996;28;20186;-65
2023/06/17 17:31:11;;;;;;;4.10;3.37;;;;;;;;;;6283777;28;20193;-65
2023/06/17 17:34:12;;;;;;;3.53;3.23;;;;;;;;;;6282372;28;20192;-65
2023/06/17 17:37:13;;;;;;;3.73;3.43;;;;;;;;;;6279797;28;20193;-65
2023/06/17 17:40:15;;;;;;;4.07;3.70;;;;;;;;;;6288342;28;20217;-63
2023/06/17 17:43:17;;;;;;;3.37;3.10;;;;;;;;;;6279508;28;20209;-63
2023/06/17 17:46:18;;;;;;;3.87;3.53;;;;;;;;;;6265239;28;20233;-64
2023/06/17 17:49:20;;;;;;;3.53;3.23;;;;;;;;;;6277992;28;20200;-64
2023/06/17 17:52:21;;;;;;;4.03;3.47;;;;;;;;;;6285161;28;20189;-66
2023/06/17 17:55:22;;;;;;;3.60;3.30;;;;;;;;;;6296404;28;20215;-66
2023/06/17 17:58:23;;;;;;;3.90;3.13;;;;;;;;;;6276353;28;20206;-66
2023/06/17 18:01:24;;;;;;;3.57;3.27;;;;;;;;;;6259992;28;20193;-68
2023/06/17 18:04:25;;;;;;;5.40;3.67;;;;;;;;;;6272524;28;20189;-67
2023/06/17 18:07:26;;;;;;;3.70;3.40;;;;;;;;;;6272474;28;20198;-66
2023/06/17 18:10:27;;;;;;;4.00;3.70;;;;;;;;;;6276783;28;20201;-66